1996 EDWIGE (1996049S10068)


On this page: IBTrACS data - Map and Plots - Positions - Intensities - Original source data

Summary

Start Feb 18
End Feb 29
Basin SI
LMI 95 kt
Sources jtwc_sh
reunion
neumann
In WMO? Yes
Previous storm 1996 HSK1596 (SI)
Previous in basin 1996 HSK1596 (SI)
Concurrent storms 1996 DENNIS (SP)
1996 DOLORESSE (SI)
1996 EDWIGE (SI)
1996 MISSING (WP)
1996 FLOSSY (SI)
1996 TD0228 (WP)
Next in basin 1996 FLOSSY (SI)
Next storm 1996 MISSING (WP)

top of page IBTrACS Data: File Access

top of page HURSAT Data: File Access

Image of storm

top of page Plots:

Map of storm track will not appear if FTP is down
Time series of cyclone Maximum Sustained Wind will not appear if FTP is down
Time series of cyclone Minimum Central Pressure will not appear if FTP is down

top of page Track Data:Position

jtwc_sh reunion neumann
Date Lat Lon Lat Lon Lat Lon
1996-02-18 00:00:00 -9.9 68.0 -9.9 68.0
1996-02-18 06:00:00 -10.5 67.5 -10.5 67.5
1996-02-18 12:00:00 -11.1 67.0 -11.1 67.0
1996-02-18 18:00:00 -11.8 66.6 -11.8 66.6
1996-02-19 00:00:00 -12.5 66.3 -12.5 66.3
1996-02-19 06:00:00 -13.3 66.1 -13.3 66.1
1996-02-19 12:00:00 -14.0 66.1 -14.4 67.6 -14.0 66.1
1996-02-19 18:00:00 -14.6 66.1 -14.7 67.8 -14.6 66.1
1996-02-20 00:00:00 -15.2 66.4 -15.0 68.0 -15.2 66.4
1996-02-20 06:00:00 -15.7 67.0 -15.6 68.4 -15.7 67.0
1996-02-20 12:00:00 -16.2 67.9 -16.1 69.1 -16.2 67.9
1996-02-20 18:00:00 -16.6 68.7 -16.2 70.0 -16.6 68.7
1996-02-21 00:00:00 -16.9 69.5 -16.6 70.7 -16.9 69.5
1996-02-21 06:00:00 -17.2 70.3 -16.9 71.0 -17.2 70.3
1996-02-21 12:00:00 -17.5 71.1 -17.1 71.1 -17.5 71.1
1996-02-21 18:00:00 -18.0 71.6 -17.5 71.1 -18.0 71.6
1996-02-22 00:00:00 -18.5 71.7 -18.1 71.1 -18.5 71.7
1996-02-22 06:00:00 -19.2 71.6 -19.1 71.3 -19.2 71.6
1996-02-22 12:00:00 -19.9 71.4 -19.9 71.2 -19.9 71.4
1996-02-22 18:00:00 -20.6 71.1 -20.4 70.8 -20.6 71.1
1996-02-23 00:00:00 -21.3 70.5 -20.9 70.3 -21.3 70.5
1996-02-23 06:00:00 -21.7 70.1 -21.3 69.8 -21.7 70.1
1996-02-23 12:00:00 -21.9 69.7 -21.9 69.3 -21.9 69.7
1996-02-23 18:00:00 -22.0 68.6 -22.2 68.1 -22.0 68.6
1996-02-24 00:00:00 -21.7 67.0 -21.8 66.8 -21.7 67.0
jtwc_sh reunion neumann
1996-02-24 06:00:00 -20.8 65.1 -21.0 65.2 -20.8 65.1
1996-02-24 12:00:00 -19.8 63.2 -20.1 63.2 -19.8 63.2
1996-02-24 18:00:00 -19.0 61.5 -19.6 61.1 -19.0 61.5
1996-02-25 00:00:00 -18.5 59.6 -19.3 58.9 -18.5 59.6
1996-02-25 06:00:00 -18.7 57.4 -19.1 56.9 -18.7 57.4
1996-02-25 12:00:00 -18.9 55.2 -19.1 54.8 -18.9 55.2
1996-02-25 18:00:00 -19.2 53.3 -19.2 53.4 -19.2 53.3
1996-02-26 00:00:00 -19.6 51.3 -19.7 51.7 -19.6 51.3
1996-02-26 06:00:00 -19.9 50.0 -20.1 50.2 -19.9 50.0
1996-02-26 12:00:00 -20.2 49.2 -20.2 49.2 -20.2 49.2
1996-02-26 18:00:00 -20.4 48.8 -20.6 48.8 -20.4 48.8
1996-02-27 00:00:00 -20.6 48.5 -20.9 48.7 -20.6 48.5
1996-02-27 06:00:00 -20.9 48.3 -20.9 48.6 -20.9 48.3
1996-02-27 12:00:00 -21.3 48.7 -20.7 48.9 -21.3 48.7
1996-02-27 18:00:00 -21.2 49.2 -20.2 49.5 -21.2 49.2
1996-02-28 00:00:00 -21.0 49.5 -20.1 49.9 -21.0 49.5
1996-02-28 06:00:00 -20.7 49.1 -20.4 49.5 -20.7 49.1
1996-02-28 12:00:00 -20.2 48.6 -20.5 49.5 -20.2 48.6
1996-02-28 18:00:00 -20.0 48.2 -20.3 49.5 -20.0 48.2
1996-02-29 00:00:00 -19.9 48.0 -20.1 49.6 -19.9 48.0
1996-02-29 06:00:00 -20.0 47.7 -19.4 49.8 -20.0 47.7
1996-02-29 12:00:00 -20.2 47.6 -18.4 49.9 -20.2 47.6
1996-02-29 18:00:00 -20.4 47.5 -20.4 47.5

top of pageTrack Data:Intensity

jtwc_sh reunion neumann
Date Wind Pres Wind Pres Wind Pres
1996-02-18 00:00:00 15. 15.
1996-02-18 06:00:00 20. 20.
1996-02-18 12:00:00 15. 15.
1996-02-18 18:00:00 20. 20.
1996-02-19 00:00:00 20. 20.
1996-02-19 06:00:00 20. 20.
1996-02-19 12:00:00 20. 20. 1005. 20.
1996-02-19 18:00:00 25. 20. 1005. 25.
1996-02-20 00:00:00 25. 20. 1003. 25.
1996-02-20 06:00:00 25. 25. 1000. 25.
1996-02-20 12:00:00 25. 25. 1000. 25.
1996-02-20 18:00:00 30. 28. 997. 30.
1996-02-21 00:00:00 35. 30. 995. 35.
1996-02-21 06:00:00 40. 30. 995. 40.
1996-02-21 12:00:00 45. 30. 995. 45.
1996-02-21 18:00:00 45. 35. 992. 45.
1996-02-22 00:00:00 45. 38. 990. 45.
1996-02-22 06:00:00 45. 38. 990. 45.
1996-02-22 12:00:00 45. 38. 990. 45.
1996-02-22 18:00:00 45. 38. 990. 45.
1996-02-23 00:00:00 45. 42. 985. 45.
1996-02-23 06:00:00 45. 42. 985. 45.
1996-02-23 12:00:00 45. 40. 987. 45.
1996-02-23 18:00:00 35. 35. 992. 35.
1996-02-24 00:00:00 30. 35. 992. 30.
jtwc_sh reunion neumann
1996-02-24 06:00:00 30. 35. 992. 30.
1996-02-24 12:00:00 30. 35. 992. 30.
1996-02-24 18:00:00 30. 35. 992. 30.
1996-02-25 00:00:00 30. 35. 992. 30.
1996-02-25 06:00:00 30. 35. 992. 30.
1996-02-25 12:00:00 35. 38. 990. 35.
1996-02-25 18:00:00 45. 45. 985. 45.
1996-02-26 00:00:00 60. 50. 980. 60.
1996-02-26 06:00:00 75. 60. 970. 75.
1996-02-26 12:00:00 85. 70. 955. 85.
1996-02-26 18:00:00 95. 80. 945. 95.
1996-02-27 00:00:00 95. 80. 945. 95.
1996-02-27 06:00:00 90. 80. 945. 90.
1996-02-27 12:00:00 85. 70. 955. 85.
1996-02-27 18:00:00 80. 62. 965. 80.
1996-02-28 00:00:00 75. 60. 970. 75.
1996-02-28 06:00:00 75. 55. 975. 75.
1996-02-28 12:00:00 45. 50. 980. 45.
1996-02-28 18:00:00 40. 45. 985. 40.
1996-02-29 00:00:00 35. 35. 992. 35.
1996-02-29 06:00:00 30. 30. 997. 30.
1996-02-29 12:00:00 30. 25. 1000. 30.
1996-02-29 18:00:00 25. 25.

top of page Links to source data

Source Source file Format
jtwc_sh bsh161996.txt ATCF
reunion WMO-Best-Tracks.txt:Line=17348:edwige WMO (old format)
neumann tracks.sh:Storm=1052:EDWIGE:BSH161996:JTWC HURDAT